createdAt,value
2022-11-25T00:01:07.956Z,97573.16
2022-11-25T00:03:35.531Z,97575.28
2022-11-25T00:06:10.935Z,97576.59
2022-11-25T00:08:38.109Z,97572.47
2022-11-25T00:11:06.127Z,97575.97
2022-11-25T00:13:33.332Z,97571.09
2022-11-25T00:16:02.614Z,97578.34
2022-11-25T00:18:31.178Z,97572.41
2022-11-25T00:20:58.080Z,97560.84
2022-11-25T00:23:27.976Z,97554.13
2022-11-25T00:25:58.491Z,97547.66
2022-11-25T00:28:25.250Z,97546.59
2022-11-25T00:30:51.949Z,97546.09
2022-11-25T00:33:18.679Z,97546.97
2022-11-25T00:35:47.059Z,97554.75
2022-11-25T00:38:13.776Z,97557.50
2022-11-25T00:40:40.435Z,97562.06
2022-11-25T00:43:27.332Z,97558.56
2022-11-25T00:45:54.097Z,97565.97
2022-11-25T00:48:20.737Z,97559.59
2022-11-25T00:50:48.796Z,97553.25
2022-11-25T00:53:15.437Z,97553.13
2022-11-25T00:56:00.512Z,97563.28
2022-11-25T00:58:27.436Z,97553.59
2022-11-25T01:00:54.143Z,97556.25
2022-11-25T01:03:20.949Z,97554.13
2022-11-25T01:05:49.005Z,97551.00
2022-11-25T01:08:15.772Z,97554.56
2022-11-25T01:10:42.467Z,97555.44
2022-11-25T01:13:09.231Z,97564.69
2022-11-25T01:15:36.919Z,97564.38
2022-11-25T01:18:03.862Z,97560.59
2022-11-25T01:20:30.514Z,97553.31
2022-11-25T01:22:58.562Z,97550.06
2022-11-25T01:25:25.286Z,97558.56
2022-11-25T01:27:51.888Z,97550.53
2022-11-25T01:30:18.715Z,97557.25
2022-11-25T01:32:45.418Z,97562.34
2022-11-25T01:35:12.073Z,97551.63
2022-11-25T01:37:38.811Z,97559.34
2022-11-25T01:40:08.820Z,97553.94
2022-11-25T01:42:42.184Z,97559.78
2022-11-25T01:45:33.254Z,97549.81
2022-11-25T01:48:06.660Z,97553.63
2022-11-25T01:50:35.308Z,97549.75
2022-11-25T01:53:06.956Z,97549.56
2022-11-25T01:55:39.058Z,97542.97
2022-11-25T01:58:09.771Z,97546.88
2022-11-25T02:00:37.731Z,97545.91
2022-11-25T02:03:05.261Z,97551.34
2022-11-25T02:05:39.612Z,97545.16
2022-11-25T02:08:07.714Z,97536.28
2022-11-25T02:10:36.313Z,97535.13
2022-11-25T02:13:03.794Z,97543.06
2022-11-25T02:15:33.440Z,97544.78
2022-11-25T02:18:00.181Z,97539.50
2022-11-25T02:20:27.127Z,97540.72
2022-11-25T02:23:03.806Z,97531.09
2022-11-25T02:25:34.665Z,97535.22
2022-11-25T02:28:05.864Z,97533.97
2022-11-25T02:30:33.269Z,97523.00
2022-11-25T02:33:00.820Z,97527.09
2022-11-25T02:35:31.151Z,97517.53
2022-11-25T02:38:03.698Z,97527.97
2022-11-25T02:40:34.453Z,97515.38
2022-11-25T02:43:01.506Z,97508.66
2022-11-25T02:45:37.380Z,97506.28
2022-11-25T02:48:04.686Z,97514.09
2022-11-25T02:50:31.357Z,97512.19
2022-11-25T02:52:58.053Z,97509.72
2022-11-25T02:55:24.736Z,97513.25
2022-11-25T02:57:52.796Z,97515.16
2022-11-25T03:00:20.257Z,97510.28
2022-11-25T03:02:47.475Z,97504.13
2022-11-25T03:05:14.246Z,97510.56
2022-11-25T03:07:40.984Z,97507.34
2022-11-25T03:10:08.036Z,97507.09
2022-11-25T03:12:34.740Z,97513.34
2022-11-25T03:15:02.941Z,97517.06
2022-11-25T03:17:29.647Z,97514.09
2022-11-25T03:19:56.300Z,97514.09
2022-11-25T03:22:23.233Z,97513.56
2022-11-25T03:24:50.109Z,97522.13
2022-11-25T03:27:16.853Z,97513.78
2022-11-25T03:29:43.716Z,97504.13
2022-11-25T03:32:11.743Z,97499.34
2022-11-25T03:34:38.708Z,97500.97
2022-11-25T03:37:05.520Z,97499.38
2022-11-25T03:39:32.157Z,97488.41
2022-11-25T03:41:58.859Z,97491.63
2022-11-25T03:44:25.644Z,97498.88
2022-11-25T03:46:52.621Z,97495.91
2022-11-25T03:49:21.888Z,97498.03
2022-11-25T03:51:48.885Z,97509.03
2022-11-25T03:54:15.492Z,97509.00
2022-11-25T03:56:42.204Z,97508.16
2022-11-25T03:59:08.814Z,97501.69
2022-11-25T04:01:38.919Z,97501.38
2022-11-25T04:04:08.111Z,97500.03
2022-11-25T04:06:39.225Z,97501.91
2022-11-25T04:09:06.304Z,97500.56
2022-11-25T04:11:51.720Z,97501.63
2022-11-25T04:14:18.521Z,97496.28
2022-11-25T04:16:45.750Z,97501.63
2022-11-25T04:19:12.578Z,97502.44
2022-11-25T04:21:40.748Z,97496.84
2022-11-25T04:24:08.057Z,97485.84
2022-11-25T04:26:34.866Z,97494.66
2022-11-25T04:29:01.808Z,97496.53
2022-11-25T04:31:28.640Z,97493.03
2022-11-25T04:33:55.359Z,97490.41
2022-11-25T04:36:22.150Z,97495.78
2022-11-25T04:38:50.280Z,97500.59
2022-11-25T04:41:16.976Z,97498.97
2022-11-25T04:43:43.622Z,97493.63
2022-11-25T04:46:15.594Z,97488.28
2022-11-25T04:48:42.375Z,97496.59
2022-11-25T04:51:09.400Z,97494.75
2022-11-25T04:53:36.126Z,97506.03
2022-11-25T04:56:04.689Z,97495.03
2022-11-25T04:58:49.745Z,97494.22
2022-11-25T05:01:16.459Z,97488.84
2022-11-25T05:03:48.833Z,97495.31
2022-11-25T05:06:17.673Z,97497.44
2022-11-25T05:08:44.384Z,97501.47
2022-11-25T05:11:12.538Z,97501.47
2022-11-25T05:13:39.277Z,97496.69
2022-11-25T05:16:07.149Z,97501.25
2022-11-25T05:18:33.845Z,97503.41
2022-11-25T05:21:01.080Z,97507.19
2022-11-25T05:23:28.261Z,97511.47
2022-11-25T05:25:59.246Z,97506.91
2022-11-25T05:28:27.375Z,97508.25
2022-11-25T05:30:54.143Z,97507.19
2022-11-25T05:33:20.976Z,97500.19
2022-11-25T05:35:54.975Z,97509.88
2022-11-25T05:38:21.701Z,97505.84
2022-11-25T05:40:48.355Z,97509.06
2022-11-25T05:43:15.137Z,97501.28
2022-11-25T05:45:43.259Z,97504.25
2022-11-25T05:48:10.005Z,97501.84
2022-11-25T05:50:37.916Z,97503.97
2022-11-25T05:53:04.633Z,97503.19
2022-11-25T05:55:31.360Z,97499.94
2022-11-25T05:57:58.550Z,97501.84
2022-11-25T06:00:26.860Z,97501.00
2022-11-25T06:02:55.212Z,97510.19
2022-11-25T06:05:22.039Z,97509.34
2022-11-25T06:07:48.919Z,97516.06
2022-11-25T06:10:16.074Z,97528.41
2022-11-25T06:12:43.076Z,97524.38
2022-11-25T06:15:12.576Z,97535.63
2022-11-25T06:17:39.363Z,97535.09
2022-11-25T06:20:08.807Z,97536.69
2022-11-25T06:22:35.497Z,97535.38
2022-11-25T06:25:04.081Z,97537.31
2022-11-25T06:27:50.084Z,97539.41
2022-11-25T06:30:18.662Z,97538.34
2022-11-25T06:32:45.458Z,97539.69
2022-11-25T06:35:13.877Z,97541.06
2022-11-25T06:37:40.724Z,97536.75
2022-11-25T06:40:08.715Z,97537.56
2022-11-25T06:42:37.468Z,97541.84
2022-11-25T06:45:05.070Z,97542.38
2022-11-25T06:47:32.030Z,97550.13
2022-11-25T06:49:58.791Z,97560.59
2022-11-25T06:52:26.862Z,97570.47
2022-11-25T06:54:53.821Z,97575.28
2022-11-25T06:57:20.745Z,97570.16
2022-11-25T06:59:47.622Z,97569.59
2022-11-25T07:02:14.571Z,97567.50
2022-11-25T07:04:41.360Z,97564.06
2022-11-25T07:07:08.377Z,97566.53
2022-11-25T07:09:36.823Z,97567.88
2022-11-25T07:12:05.822Z,97571.41
2022-11-25T07:14:32.551Z,97565.81
2022-11-25T07:16:59.310Z,97564.78
2022-11-25T07:19:28.899Z,97567.72
2022-11-25T07:21:55.671Z,97571.53
2022-11-25T07:24:22.416Z,97574.22
2022-11-25T07:26:50.691Z,97578.50
2022-11-25T07:29:50.025Z,97576.91
2022-11-25T07:32:10.044Z,97585.25
2022-11-25T07:34:37.626Z,97579.31
2022-11-25T07:37:04.481Z,97586.59
2022-11-25T07:39:31.347Z,97603.00
2022-11-25T07:41:59.538Z,97598.16
2022-11-25T07:44:26.318Z,97596.81
2022-11-25T07:46:53.490Z,97596.28
2022-11-25T07:49:22.418Z,97608.41
2022-11-25T07:51:50.508Z,97614.84
2022-11-25T07:54:18.018Z,97621.59
2022-11-25T07:56:45.079Z,97621.81
2022-11-25T07:59:16.260Z,97622.63
2022-11-25T08:01:43.688Z,97623.19
2022-11-25T08:04:19.509Z,97625.88
2022-11-25T08:06:48.726Z,97628.28
2022-11-25T08:09:19.450Z,97628.00
2022-11-25T08:11:46.502Z,97618.34
2022-11-25T08:14:15.853Z,97621.25
2022-11-25T08:16:43.167Z,97616.69
2022-11-25T08:19:14.162Z,97616.69
2022-11-25T08:21:41.888Z,97610.75
2022-11-25T08:24:10.055Z,97609.94
2022-11-25T08:26:37.810Z,97613.50
2022-11-25T08:29:07.206Z,62402.38
2022-11-25T08:31:37.958Z,62402.38
2022-11-25T08:34:06.416Z,62402.38
2022-11-25T08:36:34.363Z,62402.38
2022-11-25T08:39:12.654Z,62402.38
2022-11-25T08:44:16.482Z,97636.59
2022-11-25T08:46:44.728Z,97636.59
2022-11-25T08:49:12.507Z,97646.81
2022-11-25T08:51:39.337Z,97655.16
2022-11-25T08:54:07.069Z,97652.44
2022-11-25T08:56:33.909Z,97652.44
2022-11-25T08:59:00.673Z,97655.94
2022-11-25T09:01:27.949Z,97662.41
2022-11-25T09:03:57.128Z,97657.56
2022-11-25T09:06:25.147Z,97659.44
2022-11-25T09:09:06.971Z,97666.69
2022-11-25T09:11:33.941Z,97672.59
2022-11-25T09:14:00.766Z,97670.97
2022-11-25T09:16:28.448Z,97674.44
2022-11-25T09:18:56.874Z,97680.91
2022-11-25T09:21:25.405Z,97677.13
2022-11-25T09:23:53.979Z,97676.84
2022-11-25T09:26:23.910Z,97675.22
2022-11-25T09:28:50.743Z,97675.22
2022-11-25T09:31:17.846Z,97690.00
2022-11-25T09:33:44.748Z,97696.19
2022-11-25T09:36:15.826Z,97697.00
2022-11-25T09:38:45.850Z,97695.66
2022-11-25T09:41:45.828Z,97701.59
2022-11-25T09:44:42.290Z,97689.28
2022-11-25T09:47:18.088Z,97704.09
2022-11-25T09:50:02.881Z,97705.97
2022-11-25T09:52:40.933Z,97703.28
2022-11-25T09:55:17.276Z,97702.16
2022-11-25T09:57:59.777Z,97708.44
2022-11-25T10:00:33.691Z,97714.16
2022-11-25T10:03:06.185Z,97715.75
2022-11-25T10:05:37.511Z,97713.03
2022-11-25T10:08:11.934Z,97718.41
2022-11-25T10:10:44.525Z,97724.34
2022-11-25T10:13:22.128Z,97715.72
2022-11-25T10:15:50.942Z,97726.47
2022-11-25T10:18:24.566Z,97721.38
2022-11-25T10:20:52.776Z,97727.59
2022-11-25T10:23:28.066Z,97726.00
2022-11-25T10:25:59.394Z,97731.94
2022-11-25T10:28:31.692Z,97730.31
2022-11-25T10:31:04.451Z,97735.97
2022-11-25T10:33:33.909Z,97729.78
2022-11-25T10:36:08.035Z,97733.28
2022-11-25T10:38:42.123Z,97731.41
2022-11-25T10:41:15.982Z,97740.28
2022-11-25T10:43:43.614Z,97741.88
2022-11-25T10:46:24.276Z,97744.03
2022-11-25T10:49:01.290Z,97741.06
2022-11-25T10:51:39.859Z,97751.03
2022-11-25T10:54:20.454Z,97745.13
2022-11-25T10:56:52.830Z,97757.53
2022-11-25T10:59:26.381Z,97756.09
2022-11-25T11:02:06.621Z,62402.38
2022-11-25T11:04:34.852Z,62402.38
2022-11-25T11:07:09.624Z,62402.38
2022-11-25T11:09:43.766Z,62402.38
2022-11-25T11:12:19.694Z,62402.38
2022-11-25T11:14:47.200Z,62402.38
2022-11-25T11:17:36.422Z,62402.38
2022-11-25T11:20:22.534Z,62402.38
2022-11-25T11:22:56.858Z,97756.09
2022-11-25T11:25:34.228Z,62402.38
2022-11-25T11:28:01.970Z,97775.28
2022-11-25T11:30:30.419Z,97782.28
2022-11-25T11:33:00.460Z,97789.31
2022-11-25T11:35:41.919Z,62402.38
2022-11-25T11:38:34.077Z,62402.38
2022-11-25T11:41:15.040Z,62402.38
2022-11-25T11:43:56.498Z,62402.38
2022-11-25T11:46:41.680Z,62402.38
2022-11-25T11:49:40.237Z,62402.38
2022-11-25T11:52:11.505Z,62402.38
2022-11-25T11:54:45.202Z,62402.38
2022-11-25T11:57:25.505Z,62402.38
2022-11-25T11:59:54.659Z,62402.38
2022-11-25T12:02:35.586Z,62402.38
2022-11-25T12:05:14.465Z,62402.38
2022-11-25T12:07:47.771Z,62402.38
2022-11-25T12:10:22.284Z,62402.38
2022-11-25T12:12:56.332Z,97817.72
2022-11-25T12:15:32.279Z,97814.72
2022-11-25T12:18:05.872Z,62402.38
2022-11-25T12:20:44.203Z,62402.38
2022-11-25T12:23:18.639Z,62402.38
2022-11-25T12:25:48.948Z,62402.38
2022-11-25T12:28:20.991Z,62402.38
2022-11-25T12:31:04.928Z,62402.38
2022-11-25T12:33:43.962Z,62402.38
2022-11-25T12:36:15.616Z,62402.38
2022-11-25T12:38:46.398Z,62402.38
2022-11-25T12:41:20.230Z,62402.38
2022-11-25T12:43:54.234Z,62402.38
2022-11-25T12:46:26.981Z,62402.38
2022-11-25T12:48:56.846Z,62402.38
2022-11-25T12:51:42.490Z,62402.38
2022-11-25T12:54:20.322Z,62402.38
2022-11-25T12:57:08.615Z,62402.38
2022-11-25T13:00:25.130Z,62402.38
2022-11-25T13:03:22.813Z,62402.38
2022-11-25T13:06:13.745Z,62402.38
2022-11-25T13:08:55.068Z,62402.38
2022-11-25T13:11:52.062Z,62402.38
2022-11-25T13:14:27.771Z,62402.38
2022-11-25T13:16:57.900Z,62402.38
2022-11-25T13:19:25.468Z,62402.38
2022-11-25T13:22:00.401Z,62402.38
2022-11-25T13:24:30.816Z,62402.38
2022-11-25T13:26:57.952Z,62402.38
2022-11-25T13:29:53.306Z,62402.38
2022-11-25T13:32:30.244Z,62402.38
2022-11-25T13:35:36.696Z,62402.38
2022-11-25T13:38:35.805Z,62402.38
2022-11-25T13:41:04.785Z,62402.38
2022-11-25T13:43:32.242Z,62402.38
2022-11-25T13:45:59.360Z,62402.38
2022-11-25T13:48:30.259Z,62402.38
2022-11-25T13:51:17.360Z,62402.38
2022-11-25T13:53:52.097Z,62402.38
2022-11-25T13:56:27.849Z,62402.38
2022-11-25T13:59:35.223Z,62402.38
2022-11-25T14:02:35.827Z,62402.38
2022-11-25T14:05:41.273Z,62402.38
2022-11-25T14:08:19.476Z,62402.38
2022-11-25T14:10:59.820Z,97814.72
2022-11-25T14:13:58.516Z,97947.53
2022-11-25T14:16:44.415Z,97950.75
2022-11-25T14:22:44.610Z,97956.66
2022-11-25T14:25:23.528Z,97951.78
2022-11-25T14:27:58.390Z,97960.91
2022-11-25T14:30:30.660Z,97966.81
2022-11-25T14:33:01.875Z,97965.19
2022-11-25T14:35:34.171Z,97960.38
2022-11-25T14:38:05.734Z,97973.28
2022-11-25T14:40:38.774Z,97981.84
2022-11-25T14:43:12.806Z,97982.13
2022-11-25T14:45:41.761Z,97986.69
2022-11-25T14:48:17.883Z,62402.38
2022-11-25T14:50:57.896Z,62402.38
2022-11-25T14:53:25.746Z,62402.38
2022-11-25T14:55:55.103Z,62402.38
2022-11-25T14:58:22.286Z,62402.38
2022-11-25T15:00:59.518Z,62402.38
2022-11-25T15:03:27.573Z,62402.38
2022-11-25T15:05:57.306Z,62402.38
2022-11-25T15:08:25.849Z,62402.38
2022-11-25T15:10:56.091Z,62402.38
2022-11-25T15:13:29.935Z,98010.59
2022-11-25T15:15:59.246Z,98004.66
2022-11-25T15:18:26.265Z,98013.53
2022-11-25T15:20:58.141Z,98021.56
2022-11-25T15:23:29.387Z,98008.63
2022-11-25T15:25:57.929Z,62402.38
2022-11-25T15:28:24.937Z,62402.38
2022-11-25T15:30:59.153Z,62402.38
2022-11-25T15:33:27.177Z,62402.38
2022-11-25T15:35:54.381Z,62402.38
2022-11-25T15:38:36.926Z,62402.38
2022-11-25T15:41:06.239Z,62402.38
2022-11-25T15:43:37.562Z,62402.38
2022-11-25T15:46:06.896Z,62402.38
2022-11-25T15:48:38.150Z,62402.38
2022-11-25T15:51:13.767Z,62402.38
2022-11-25T15:53:42.689Z,62402.38
2022-11-25T15:56:16.100Z,98008.63
2022-11-25T15:58:43.091Z,62402.38
2022-11-25T16:01:21.283Z,62402.38
2022-11-25T16:03:49.523Z,62402.38
2022-11-25T16:06:21.963Z,62402.38
2022-11-25T16:08:56.617Z,62402.38
2022-11-25T16:11:29.511Z,62402.38
2022-11-25T16:14:17.328Z,62402.38
2022-11-25T16:16:44.816Z,62402.38
2022-11-25T16:19:16.838Z,62402.38
2022-11-25T16:21:54.996Z,62402.38
2022-11-25T16:24:49.641Z,62402.38
2022-11-25T16:27:23.467Z,62402.38
2022-11-25T16:29:52.013Z,98082.44
2022-11-25T16:32:20.712Z,98084.50
2022-11-25T16:34:47.656Z,98084.31
2022-11-25T16:37:14.370Z,98094.50
2022-11-25T16:39:41.230Z,98095.63
2022-11-25T16:42:16.550Z,98097.84
2022-11-25T16:44:48.284Z,98104.44
2022-11-25T16:47:15.367Z,98101.72
2022-11-25T16:49:42.280Z,98108.97
2022-11-25T16:52:09.273Z,98118.81
2022-11-25T16:54:37.733Z,62402.38
2022-11-25T16:57:07.715Z,98118.28
2022-11-25T16:59:37.996Z,98130.94
2022-11-25T17:02:14.689Z,98134.78
2022-11-25T17:04:41.699Z,98137.72
2022-11-25T17:07:31.658Z,98141.13
2022-11-25T17:09:58.992Z,98153.47
2022-11-25T17:12:29.936Z,98153.50
2022-11-25T17:14:59.607Z,98148.88
2022-11-25T17:17:28.568Z,98155.63
2022-11-25T17:19:55.868Z,98160.13
2022-11-25T17:22:25.221Z,98160.63
2022-11-25T17:24:52.215Z,98173.81
2022-11-25T17:27:23.856Z,98172.59
2022-11-25T17:29:51.422Z,98172.31
2022-11-25T17:32:18.322Z,98176.56
2022-11-25T17:34:46.728Z,98170.88
2022-11-25T17:37:14.161Z,98174.34
2022-11-25T17:39:40.871Z,98187.22
2022-11-25T17:42:07.648Z,98185.56
2022-11-25T17:44:34.691Z,98184.78
2022-11-25T17:47:02.925Z,98190.69
2022-11-25T17:49:29.718Z,98194.00
2022-11-25T17:51:57.866Z,98202.34
2022-11-25T17:54:24.612Z,98204.13
2022-11-25T17:56:52.646Z,98207.41
2022-11-25T17:59:25.124Z,98210.03
2022-11-25T18:01:52.239Z,98217.03
2022-11-25T18:04:22.617Z,98211.09
2022-11-25T18:06:49.875Z,98216.88
2022-11-25T18:09:18.088Z,98216.56
2022-11-25T18:11:48.482Z,98220.63
2022-11-25T18:14:22.146Z,98221.06
2022-11-25T18:16:49.271Z,98226.69
2022-11-25T18:19:16.200Z,98236.38
2022-11-25T18:21:42.880Z,98247.56
2022-11-25T18:24:09.677Z,98253.50
2022-11-25T18:26:43.960Z,62402.38
2022-11-25T18:29:15.466Z,62402.38
2022-11-25T18:31:43.011Z,62402.38
2022-11-25T18:34:16.354Z,98275.16
2022-11-25T18:36:44.088Z,98282.41
2022-11-25T18:39:11.199Z,98289.66
2022-11-25T18:41:41.811Z,98300.41
2022-11-25T18:44:25.882Z,98300.22
2022-11-25T18:46:53.773Z,62402.38
2022-11-25T18:49:21.042Z,62402.38
2022-11-25T18:51:48.144Z,98303.03
2022-11-25T18:54:15.218Z,98299.78
2022-11-25T18:56:45.218Z,98301.91
2022-11-25T18:59:17.452Z,98312.91
2022-11-25T19:01:49.444Z,98318.22
2022-11-25T19:04:17.077Z,98322.69
2022-11-25T19:06:44.246Z,98330.75
2022-11-25T19:09:11.264Z,98341.25
2022-11-25T19:11:41.944Z,98334.06
2022-11-25T19:14:13.512Z,98344.25
2022-11-25T19:16:41.404Z,98340.75
2022-11-25T19:19:13.156Z,98341.63
2022-11-25T19:21:39.867Z,98338.41
2022-11-25T19:24:12.452Z,98341.88
2022-11-25T19:26:43.536Z,98345.56
2022-11-25T19:29:17.761Z,98352.56
2022-11-25T19:31:44.686Z,98351.09
2022-11-25T19:34:24.585Z,98363.00
2022-11-25T19:36:51.381Z,98364.63
2022-11-25T19:39:18.899Z,98370.16
2022-11-25T19:41:45.669Z,98374.06
2022-11-25T19:44:14.536Z,98382.59
2022-11-25T19:47:13.254Z,98385.94
2022-11-25T19:49:31.449Z,98390.16
2022-11-25T19:51:58.260Z,98390.16
2022-11-25T19:54:24.961Z,98394.00
2022-11-25T19:56:51.760Z,98402.00
2022-11-25T19:59:19.964Z,98398.25
2022-11-25T20:01:47.031Z,98402.94
2022-11-25T20:04:19.555Z,98408.44
2022-11-25T20:06:47.141Z,98404.97
2022-11-25T20:09:14.066Z,98416.50
2022-11-25T20:11:42.064Z,98412.78
2022-11-25T20:14:08.973Z,98404.47
2022-11-25T20:16:40.425Z,98412.31
2022-11-25T20:19:14.238Z,98420.38
2022-11-25T20:21:42.349Z,98421.41
2022-11-25T20:24:14.112Z,98420.59
2022-11-25T20:26:45.940Z,98431.22
2022-11-25T20:29:16.114Z,98428.13
2022-11-25T20:31:44.310Z,98437.13
2022-11-25T20:34:11.116Z,98432.59
2022-11-25T20:36:40.114Z,98444.28
2022-11-25T20:39:07.184Z,98449.75
2022-11-25T20:41:34.437Z,98448.59
2022-11-25T20:44:06.639Z,62402.38
2022-11-25T20:46:36.694Z,62402.38
2022-11-25T20:49:19.875Z,98467.47
2022-11-25T20:51:46.686Z,98474.03
2022-11-25T20:54:14.292Z,98473.94
2022-11-25T20:56:44.076Z,98475.78
2022-11-25T20:59:22.437Z,98481.50
2022-11-25T21:01:53.832Z,98474.28
2022-11-25T21:04:23.203Z,98472.66
2022-11-25T21:06:50.217Z,98477.66
2022-11-25T21:09:23.442Z,98482.34
2022-11-25T21:11:50.264Z,98486.97
2022-11-25T21:14:19.469Z,98496.66
2022-11-25T21:16:46.499Z,98503.75
2022-11-25T21:19:13.350Z,98497.81
2022-11-25T21:21:44.547Z,98496.31
2022-11-25T21:24:23.847Z,98496.00
2022-11-25T21:26:51.427Z,98505.19
2022-11-25T21:29:19.011Z,98507.66
2022-11-25T21:31:46.312Z,98504.13
2022-11-25T21:34:14.513Z,98512.78
2022-11-25T21:36:45.535Z,98522.91
2022-11-25T21:39:24.579Z,98511.84
2022-11-25T21:41:52.580Z,98522.91
2022-11-25T21:44:27.757Z,98518.59
2022-11-25T21:46:54.682Z,98525.47
2022-11-25T21:49:21.597Z,98537.13
2022-11-25T21:51:49.803Z,98537.22
2022-11-25T21:54:16.587Z,98531.63
2022-11-25T21:56:44.634Z,98532.13
2022-11-25T21:59:18.555Z,98541.09
2022-11-25T22:01:45.574Z,98543.44
2022-11-25T22:04:14.922Z,98539.84
2022-11-25T22:06:42.357Z,98543.66
2022-11-25T22:09:11.051Z,98547.50
2022-11-25T22:11:39.882Z,98544.84
2022-11-25T22:14:14.114Z,98552.28
2022-11-25T22:16:41.240Z,98556.47
2022-11-25T22:19:17.754Z,98560.44
2022-11-25T22:21:44.793Z,98564.91
2022-11-25T22:24:15.810Z,98561.63
2022-11-25T22:26:43.931Z,98572.88
2022-11-25T22:29:14.108Z,98559.78
2022-11-25T22:31:41.700Z,98569.00
2022-11-25T22:34:16.686Z,98569.81
2022-11-25T22:36:44.443Z,98576.22
2022-11-25T22:39:17.573Z,98579.50
2022-11-25T22:41:48.763Z,98581.59
2022-11-25T22:44:21.797Z,98584.97
2022-11-25T22:46:48.972Z,98583.91
2022-11-25T22:49:27.571Z,98595.34
2022-11-25T22:51:55.208Z,98600.28
2022-11-25T22:54:24.022Z,98594.06
2022-11-25T22:56:50.954Z,98592.81
2022-11-25T22:59:17.779Z,98603.19
2022-11-25T23:01:45.086Z,98602.59
2022-11-25T23:04:16.291Z,98599.91
2022-11-25T23:06:43.008Z,98598.38
2022-11-25T23:09:14.681Z,98601.41
2022-11-25T23:11:43.071Z,98602.16
2022-11-25T23:14:10.333Z,98612.75
2022-11-25T23:16:37.094Z,98617.19
2022-11-25T23:19:04.775Z,98619.06
2022-11-25T23:21:31.746Z,98618.47
2022-11-25T23:24:00.305Z,98632.47
2022-11-25T23:26:33.606Z,98625.47
2022-11-25T23:29:03.150Z,98634.69
2022-11-25T23:31:30.351Z,98641.81
2022-11-25T23:33:57.308Z,98634.72
2022-11-25T23:36:27.475Z,98637.84
2022-11-25T23:38:57.169Z,98646.84
2022-11-25T23:41:25.886Z,98645.41
2022-11-25T23:43:53.127Z,98643.56
2022-11-25T23:46:24.743Z,98645.31
2022-11-25T23:48:55.989Z,98644.38
2022-11-25T23:51:23.169Z,98649.41
2022-11-25T23:53:50.794Z,98648.00
2022-11-25T23:56:17.973Z,98655.72
2022-11-25T23:58:44.632Z,98652.19
